Time;durP1;ratioP1;P1;durP2;ratioP2;P2;SDS_P1;SDS_P2;PMS_P1;PMS_P2;Temp;Humidity;BMP_temperature;BMP_pressure;BME280_temperature;BME280_humidity;BME280_pressure;Samples;Min_cycle;Max_cycle;Signal;HPM_P1;HPM_P2
2020/12/28 00:02:40;;;;;;;1.33;1.23;;;;;;;4.89;81.81;96766.09;8715247;33;20651;-73
2020/12/28 00:07:43;;;;;;;1.33;1.30;;;;;;;4.88;81.70;96761.78;8718295;33;20256;-72
2020/12/28 00:12:49;;;;;;;1.50;1.40;;;;;;;4.93;81.80;96758.66;8720507;33;20678;-72
2020/12/28 00:17:54;;;;;;;1.25;1.15;;;;;;;4.81;81.15;96756.28;8720707;33;20156;-73
2020/12/28 00:22:57;;;;;;;1.00;1.00;;;;;;;4.87;80.96;96770.69;8720152;33;20184;-72
2020/12/28 00:28:00;;;;;;;1.30;1.20;;;;;;;4.87;81.05;96768.06;8720752;33;20356;-72
2020/12/28 00:33:02;;;;;;;1.30;1.20;;;;;;;4.88;81.24;96773.22;8720077;33;20222;-72
2020/12/28 00:38:05;;;;;;;1.10;1.10;;;;;;;4.85;81.22;96786.75;8720275;33;21629;-73
2020/12/28 00:43:07;;;;;;;1.30;1.20;;;;;;;4.89;81.41;96769.56;8720329;33;20244;-73
2020/12/28 00:48:10;;;;;;;1.37;1.27;;;;;;;4.83;80.91;96754.31;8695479;33;21205;-72
2020/12/28 00:53:13;;;;;;;1.30;1.20;;;;;;;4.87;80.61;96758.31;8694818;33;21520;-71
2020/12/28 00:58:15;;;;;;;1.40;1.20;;;;;;;4.89;80.53;96761.63;8718015;33;21425;-72
2020/12/28 01:03:26;;;;;;;1.40;1.30;;;;;;;4.87;80.46;96752.19;8718473;33;20148;-72
2020/12/28 01:09:04;;;;;;;1.30;1.20;;;;;;;4.93;80.72;96750.75;8693615;33;20155;-69
2020/12/28 01:14:07;;;;;;;1.53;1.43;;;;;;;4.89;80.31;96742.28;8718719;33;21113;-71
2020/12/28 01:19:10;;;;;;;1.20;1.10;;;;;;;4.87;80.16;96749.56;8694196;33;20182;-72
2020/12/28 01:24:14;;;;;;;1.40;1.30;;;;;;;4.97;80.29;96770.63;8718032;33;20327;-71
2020/12/28 01:29:18;;;;;;;1.30;1.20;;;;;;;4.96;79.45;96761.81;8716981;33;20670;-72
2020/12/28 01:34:25;;;;;;;1.30;1.20;;;;;;;4.98;79.08;96764.31;8717779;33;20233;-72
2020/12/28 01:39:36;;;;;;;1.00;1.00;;;;;;;5.09;78.94;96751.66;8717233;33;20260;-72
2020/12/28 01:44:40;;;;;;;1.93;0.80;;;;;;;4.93;78.58;96748.09;8719068;33;20240;-71
2020/12/28 01:49:52;;;;;;;1.83;1.10;;;;;;;5.00;78.34;96739.38;8693533;33;20195;-71
2020/12/28 01:54:56;;;;;;;0.88;0.88;;;;;;;4.94;78.78;96733.88;8693653;33;20187;-71
2020/12/28 02:00:00;;;;;;;1.10;1.10;;;;;;;5.02;78.76;96723.34;8693577;33;20298;-72
2020/12/28 02:05:25;;;;;;;1.67;1.00;;;;;;;5.03;78.85;96717.09;8717702;33;20179;-73
2020/12/28 02:10:29;;;;;;;1.00;1.00;;;;;;;4.92;78.54;96712.06;8693540;33;20190;-72
2020/12/28 02:15:34;;;;;;;1.15;1.05;;;;;;;4.91;78.47;96729.75;8717081;33;20192;-72
2020/12/28 02:20:55;;;;;;;1.00;1.00;;;;;;;4.89;78.27;96751.06;8717688;33;20163;-71
2020/12/28 02:25:59;;;;;;;1.25;1.05;;;;;;;4.85;77.91;96741.78;8716860;33;21963;-71
2020/12/28 02:31:02;;;;;;;1.47;0.93;;;;;;;4.92;77.83;96725.28;8716660;33;20187;-71
2020/12/28 02:36:20;;;;;;;1.30;1.20;;;;;;;4.97;77.71;96730.94;8692921;33;20975;-72
2020/12/28 02:41:25;;;;;;;1.10;1.10;;;;;;;5.09;77.80;96719.91;8692893;33;20257;-71
2020/12/28 02:46:47;;;;;;;1.00;1.00;;;;;;;5.03;78.06;96712.63;8717599;33;20645;-71
2020/12/28 02:52:08;;;;;;;1.60;1.20;;;;;;;4.98;77.88;96700.84;8717256;33;20447;-71
2020/12/28 02:57:30;;;;;;;1.23;1.13;;;;;;;4.98;77.74;96699.03;8716947;33;20551;-72
2020/12/28 03:02:51;;;;;;;0.93;0.93;;;;;;;4.88;77.64;96706.25;8716846;33;20433;-72
2020/12/28 03:08:11;;;;;;;0.95;0.95;;;;;;;5.02;77.71;96710.97;8717212;33;20192;-72
2020/12/28 03:13:34;;;;;;;1.70;0.87;;;;;;;4.81;77.46;96708.69;8716930;33;20195;-72
2020/12/28 03:18:55;;;;;;;1.00;1.00;;;;;;;4.93;77.61;96703.13;8717004;33;21008;-72
2020/12/28 03:24:16;;;;;;;0.90;0.90;;;;;;;4.92;77.78;96710.25;8716949;33;20286;-72
2020/12/28 03:29:37;;;;;;;0.98;0.98;;;;;;;4.91;77.93;96703.31;8716098;33;20416;-72
2020/12/28 03:34:58;;;;;;;0.87;0.87;;;;;;;4.84;77.91;96703.09;8716332;33;20321;-72
2020/12/28 03:40:19;;;;;;;1.40;1.30;;;;;;;4.86;78.26;96701.13;8715389;33;20633;-72
2020/12/28 03:45:48;;;;;;;1.13;1.10;;;;;;;4.97;78.14;96709.78;8693583;33;20252;-71
2020/12/28 03:51:09;;;;;;;1.63;1.40;;;;;;;4.97;78.03;96723.84;8716250;33;20183;-72
2020/12/28 03:56:30;;;;;;;1.63;1.50;;;;;;;5.00;77.94;96730.63;8716092;33;20183;-72
2020/12/28 04:01:52;;;;;;;1.05;0.90;;;;;;;5.09;77.70;96740.25;8715334;33;20575;-72
2020/12/28 04:07:27;;;;;;;1.70;1.60;;;;;;;5.22;77.38;96743.31;8698588;33;20864;-71
2020/12/28 04:12:56;;;;;;;1.30;1.20;;;;;;;5.29;78.18;96732.91;8682943;33;20183;-72
2020/12/28 04:17:59;;;;;;;1.55;1.45;;;;;;;5.23;77.96;96722.97;8715250;33;20278;-71
2020/12/28 04:23:01;;;;;;;1.10;1.00;;;;;;;5.18;78.01;96720.78;8714715;33;20275;-72
2020/12/28 04:28:04;;;;;;;1.25;1.20;;;;;;;5.22;78.56;96723.97;8715022;33;20441;-72
2020/12/28 04:33:07;;;;;;;1.40;1.30;;;;;;;5.24;79.16;96720.16;8714495;33;21611;-72
2020/12/28 04:38:09;;;;;;;1.40;1.30;;;;;;;5.28;79.19;96724.13;8714243;33;20878;-71
2020/12/28 04:43:13;;;;;;;1.40;1.30;;;;;;;5.29;79.26;96730.25;8714758;33;21029;-71
2020/12/28 04:48:17;;;;;;;2.10;1.53;;;;;;;5.34;78.96;96725.31;8714320;33;20700;-72
2020/12/28 04:53:20;;;;;;;2.50;1.63;;;;;;;5.38;79.06;96731.16;8714045;33;20187;-71
2020/12/28 04:58:22;;;;;;;1.20;1.10;;;;;;;5.37;78.55;96735.59;8719131;33;20180;-71
2020/12/28 05:03:27;;;;;;;1.48;1.33;;;;;;;5.43;78.70;96734.97;8719470;33;20271;-71
2020/12/28 05:08:29;;;;;;;2.72;1.45;;;;;;;5.48;78.68;96723.88;8718433;33;20196;-71
2020/12/28 05:13:32;;;;;;;1.40;1.30;;;;;;;5.49;78.24;96721.09;8719100;33;20457;-72
2020/12/28 05:18:35;;;;;;;1.30;1.20;;;;;;;5.43;78.00;96724.38;8719056;33;20179;-71
2020/12/28 05:23:37;;;;;;;2.03;1.40;;;;;;;5.51;78.26;96726.22;8718830;33;20187;-72
2020/12/28 05:28:42;;;;;;;1.70;1.60;;;;;;;5.53;77.71;96727.72;8718492;33;20970;-71
2020/12/28 05:33:47;;;;;;;2.08;1.45;;;;;;;5.56;77.52;96722.09;8718408;33;20191;-70
2020/12/28 05:38:49;;;;;;;1.80;1.60;;;;;;;5.64;77.85;96726.59;8718675;33;20226;-71
2020/12/28 05:43:51;;;;;;;1.98;1.45;;;;;;;5.61;77.11;96734.84;8718080;33;20700;-71
2020/12/28 05:48:55;;;;;;;1.77;1.67;;;;;;;5.63;77.17;96735.53;8718702;33;20335;-71
2020/12/28 05:54:02;;;;;;;1.48;1.38;;;;;;;5.67;77.53;96725.44;8718429;33;20482;-71
2020/12/28 05:59:05;;;;;;;1.58;1.48;;;;;;;5.65;77.90;96733.56;8717846;33;20784;-72
2020/12/28 06:04:14;;;;;;;1.10;1.10;;;;;;;5.69;78.75;96745.47;8719264;33;20187;-72
2020/12/28 06:09:18;;;;;;;1.48;1.38;;;;;;;5.62;78.42;96755.03;8718469;33;20147;-72
2020/12/28 06:14:21;;;;;;;1.50;1.40;;;;;;;5.62;77.91;96752.38;8718028;33;20524;-71
2020/12/28 06:19:26;;;;;;;1.30;1.20;;;;;;;5.70;77.87;96760.38;8717554;33;20190;-71
2020/12/28 06:24:31;;;;;;;1.63;1.52;;;;;;;5.72;77.57;96779.56;8718143;33;20156;-72
2020/12/28 06:29:38;;;;;;;2.05;1.75;;;;;;;5.78;78.06;96786.03;8717468;33;20178;-70
2020/12/28 06:34:44;;;;;;;1.95;1.67;;;;;;;5.79;78.00;96793.84;8718259;33;20144;-70
2020/12/28 06:39:57;;;;;;;1.50;1.40;;;;;;;5.75;77.95;96795.16;8717121;33;20712;-71
2020/12/28 06:45:13;;;;;;;1.45;1.30;;;;;;;5.83;77.60;96781.09;8717503;33;20239;-71
2020/12/28 06:50:22;;;;;;;2.17;1.40;;;;;;;5.88;77.66;96778.81;8717589;33;21604;-72
2020/12/28 06:55:25;;;;;;;1.50;1.40;;;;;;;5.87;77.38;96781.59;8717130;33;20880;-71
2020/12/28 07:00:27;;;;;;;1.23;1.23;;;;;;;5.86;77.24;96780.78;8715503;33;20183;-70
2020/12/28 07:05:30;;;;;;;1.42;1.30;;;;;;;5.81;77.42;96785.72;8717669;33;20586;-71
2020/12/28 07:10:33;;;;;;;1.52;1.42;;;;;;;5.72;77.60;96782.22;8717033;33;20588;-72
2020/12/28 07:15:36;;;;;;;1.52;1.40;;;;;;;5.71;77.93;96801.75;8716361;33;20195;-72
2020/12/28 07:20:39;;;;;;;1.27;1.17;;;;;;;5.75;78.13;96805.72;8716860;33;20151;-72
2020/12/28 07:25:41;;;;;;;1.55;1.45;;;;;;;5.74;78.22;96788.19;8716423;33;20254;-71
2020/12/28 07:30:43;;;;;;;1.40;1.30;;;;;;;5.73;77.77;96802.44;8715967;33;20274;-71
2020/12/28 07:36:05;;;;;;;1.95;1.55;;;;;;;5.86;77.91;96817.84;8716185;33;20470;-71
2020/12/28 07:41:07;;;;;;;1.45;1.35;;;;;;;5.90;78.08;96810.44;8715640;33;20169;-71
2020/12/28 07:46:20;;;;;;;1.25;1.25;;;;;;;5.93;77.65;96828.66;8702348;33;21569;-70
2020/12/28 07:51:25;;;;;;;1.55;1.45;;;;;;;5.98;77.57;96844.94;8719729;33;20213;-70
2020/12/28 07:56:33;;;;;;;1.05;1.00;;;;;;;6.04;76.82;96848.78;8715590;33;20183;-70
2020/12/28 08:01:56;;;;;;;1.30;1.17;;;;;;;6.06;76.22;96855.56;8716054;33;20608;-71
2020/12/28 08:06:59;;;;;;;1.08;1.08;;;;;;;6.08;75.90;96856.22;8715959;33;20186;-71
2020/12/28 08:12:03;;;;;;;2.35;1.52;;;;;;;6.10;75.16;96856.91;8715559;33;20187;-70
2020/12/28 08:17:10;;;;;;;1.48;1.38;;;;;;;6.16;74.71;96866.84;8715806;33;20219;-71
2020/12/28 08:22:23;;;;;;;1.88;1.33;;;;;;;6.24;74.58;96872.19;8715415;33;20203;-70
2020/12/28 08:27:30;;;;;;;2.47;1.52;;;;;;;6.24;74.24;96876.66;8716360;33;20175;-71
2020/12/28 08:32:36;;;;;;;1.75;1.33;;;;;;;6.26;74.38;96868.56;8720353;33;20335;-70
2020/12/28 08:37:47;;;;;;;2.15;1.40;;;;;;;6.29;74.22;96876.19;8717344;33;21631;-70
2020/12/28 08:42:54;;;;;;;3.75;2.17;;;;;;;6.34;73.92;96877.34;8719080;33;20684;-70
2020/12/28 08:47:58;;;;;;;2.97;1.50;;;;;;;6.31;73.60;96890.06;8719854;33;20248;-71
2020/12/28 08:53:01;;;;;;;2.05;1.33;;;;;;;6.31;73.80;96887.44;8717914;33;20183;-70
2020/12/28 08:58:04;;;;;;;1.30;1.20;;;;;;;6.27;73.72;96896.72;8719153;33;20421;-70
2020/12/28 09:03:10;;;;;;;1.65;1.48;;;;;;;6.30;73.64;96889.25;8719155;33;20274;-71
2020/12/28 09:08:13;;;;;;;1.55;1.27;;;;;;;6.51;73.09;96907.38;8719208;33;20564;-70
2020/12/28 09:13:15;;;;;;;1.25;1.15;;;;;;;6.59;72.45;96901.28;8719121;33;20244;-70
2020/12/28 09:18:18;;;;;;;1.45;1.35;;;;;;;6.71;71.97;96901.78;8718540;33;20510;-70
2020/12/28 09:23:21;;;;;;;1.13;1.10;;;;;;;6.62;71.98;96915.03;8718020;33;20214;-71
2020/12/28 09:28:23;;;;;;;2.67;1.33;;;;;;;6.73;71.46;96911.25;8694138;33;20185;-71
2020/12/28 09:33:25;;;;;;;1.27;1.17;;;;;;;6.88;70.94;96919.38;8719312;33;20210;-69
2020/12/28 09:38:30;;;;;;;1.48;1.30;;;;;;;7.07;70.30;96919.06;8718675;33;20512;-69
2020/12/28 09:43:32;;;;;;;1.40;1.30;;;;;;;7.13;70.15;96922.91;8719115;33;20660;-69
2020/12/28 09:48:34;;;;;;;0.95;0.95;;;;;;;7.17;69.16;96918.91;8718998;33;20271;-68
2020/12/28 09:53:38;;;;;;;1.02;1.00;;;;;;;7.31;69.72;96910.28;8718095;33;21265;-69
2020/12/28 09:58:41;;;;;;;1.23;1.20;;;;;;;7.37;69.03;96898.16;8716511;33;20214;-69
2020/12/28 10:03:43;;;;;;;1.33;1.20;;;;;;;7.36;69.13;96896.50;8716801;33;20136;-69
2020/12/28 10:08:46;;;;;;;1.25;1.23;;;;;;;9.02;66.49;96894.69;8718082;33;20184;-69
2020/12/28 10:13:48;;;;;;;1.55;1.38;;;;;;;9.71;61.44;96877.78;8717528;33;20183;-69
2020/12/28 10:18:52;;;;;;;1.23;1.20;;;;;;;10.38;59.06;96867.00;8716869;33;20191;-69
2020/12/28 10:23:56;;;;;;;1.92;1.27;;;;;;;10.96;57.06;96876.84;8716112;33;20147;-69
2020/12/28 10:28:58;;;;;;;1.25;1.15;;;;;;;11.17;58.03;96894.72;8717045;33;20671;-68
2020/12/28 10:34:00;;;;;;;1.20;1.10;;;;;;;10.86;56.88;96894.03;8715966;33;20771;-69
2020/12/28 10:39:04;;;;;;;1.42;1.20;;;;;;;10.47;57.96;96899.72;8716117;33;20691;-69
2020/12/28 10:44:07;;;;;;;1.45;1.35;;;;;;;10.75;57.19;96877.66;8715998;33;20473;-69
2020/12/28 10:49:09;;;;;;;1.33;1.23;;;;;;;10.37;57.21;96880.53;8715441;33;20682;-69
2020/12/28 10:54:13;;;;;;;1.95;1.73;;;;;;;10.72;57.03;96886.03;8713469;33;20190;-70
2020/12/28 10:59:15;;;;;;;1.80;1.40;;;;;;;10.93;55.16;96899.44;8715592;33;20314;-70
2020/12/28 11:04:18;;;;;;;0.73;0.73;;;;;;;10.66;54.98;96900.97;8716182;33;20125;-70
2020/12/28 11:09:21;;;;;;;1.00;0.90;;;;;;;11.70;53.41;96903.19;8715660;33;20194;-70
2020/12/28 11:14:23;;;;;;;1.42;1.20;;;;;;;11.89;53.36;96913.22;8715492;33;20209;-70
2020/12/28 11:19:26;;;;;;;0.90;0.90;;;;;;;11.70;53.83;96906.69;8714274;33;20491;-70
2020/12/28 11:24:29;;;;;;;1.15;1.10;;;;;;;11.09;54.83;96904.53;8715255;33;20187;-70
2020/12/28 11:29:32;;;;;;;1.10;1.00;;;;;;;11.17;55.17;96905.41;8714237;33;20450;-70
2020/12/28 11:34:34;;;;;;;1.02;1.02;;;;;;;10.67;55.62;96906.13;8714752;33;20191;-70
2020/12/28 11:39:37;;;;;;;1.15;1.05;;;;;;;11.11;54.74;96897.16;8714140;33;20266;-70
2020/12/28 11:44:40;;;;;;;2.25;1.00;;;;;;;10.33;56.92;96893.41;8712979;33;20192;-71
2020/12/28 11:49:42;;;;;;;1.30;1.17;;;;;;;11.04;55.57;96874.88;8714140;33;20275;-70
2020/12/28 11:54:45;;;;;;;2.55;1.38;;;;;;;10.95;53.42;96867.19;8713613;33;20213;-71
2020/12/28 11:59:47;;;;;;;2.17;1.00;;;;;;;10.56;54.22;96871.09;8714137;33;20226;-70
2020/12/28 12:04:50;;;;;;;0.85;0.85;;;;;;;10.38;54.35;96869.66;8717846;33;20419;-70
2020/12/28 12:09:54;;;;;;;1.00;0.90;;;;;;;10.94;52.71;96861.00;8662662;33;20354;-70
2020/12/28 12:14:57;;;;;;;1.60;1.20;;;;;;;11.40;51.19;96855.25;8689487;33;20227;-70
2020/12/28 12:19:59;;;;;;;0.70;0.70;;;;;;;11.47;50.68;96866.00;8719464;33;20140;-70
2020/12/28 12:25:03;;;;;;;1.20;1.10;;;;;;;11.57;50.26;96870.00;8718680;33;21631;-70
2020/12/28 12:30:05;;;;;;;0.80;0.80;;;;;;;10.73;51.89;96863.69;8717721;33;20285;-70
2020/12/28 12:35:08;;;;;;;0.80;0.80;;;;;;;10.69;53.15;96852.53;8720018;33;20215;-70
2020/12/28 12:40:11;;;;;;;1.05;0.95;;;;;;;10.85;52.46;96843.47;8718672;33;20626;-70
2020/12/28 12:45:13;;;;;;;2.35;1.00;;;;;;;10.42;53.11;96846.09;8719146;33;20195;-70
2020/12/28 12:50:16;;;;;;;1.58;1.10;;;;;;;9.83;55.67;96849.63;8719919;33;20163;-70
2020/12/28 12:55:19;;;;;;;1.65;1.55;;;;;;;9.52;56.76;96857.81;8703179;33;20183;-71
2020/12/28 13:00:22;;;;;;;1.42;1.33;;;;;;;10.13;55.08;96855.78;8720356;33;20183;-70
2020/12/28 13:05:24;;;;;;;2.38;1.63;;;;;;;10.84;53.40;96850.66;8719348;33;20189;-70
2020/12/28 13:10:29;;;;;;;7.78;4.05;;;;;;;10.53;54.08;96864.31;8718340;33;20136;-69
2020/12/28 13:15:31;;;;;;;8.95;5.18;;;;;;;9.84;56.14;96850.47;8717412;33;20274;-71
2020/12/28 13:20:33;;;;;;;6.68;4.35;;;;;;;10.17;55.20;96856.22;8718508;33;20595;-71
2020/12/28 13:25:37;;;;;;;12.65;7.18;;;;;;;10.55;54.29;96864.91;8717850;33;20143;-71
2020/12/28 13:30:39;;;;;;;11.23;6.53;;;;;;;10.72;54.59;96870.03;8718261;33;20193;-70
2020/12/28 13:35:41;;;;;;;4.65;3.63;;;;;;;10.60;54.06;96875.03;8717878;33;20195;-70
2020/12/28 13:40:45;;;;;;;4.50;3.70;;;;;;;10.90;53.00;96859.75;8718005;33;20419;-70
2020/12/28 13:45:47;;;;;;;2.72;2.13;;;;;;;10.89;52.54;96863.44;8660576;33;21694;-70
2020/12/28 13:50:49;;;;;;;4.72;2.65;;;;;;;10.66;52.90;96864.44;8659804;33;20188;-70
2020/12/28 13:55:52;;;;;;;2.97;1.10;;;;;;;10.21;53.63;96863.69;8660522;33;20199;-70
2020/12/28 14:00:55;;;;;;;4.97;2.95;;;;;;;10.12;53.77;96858.63;8659946;33;20518;-70
2020/12/28 14:05:57;;;;;;;2.35;2.15;;;;;;;9.85;54.75;96870.78;8660654;33;20145;-70
2020/12/28 14:11:00;;;;;;;3.92;3.38;;;;;;;9.74;55.42;96872.06;8660323;33;21419;-70
2020/12/28 14:16:02;;;;;;;2.90;2.58;;;;;;;9.43;55.99;96862.38;8660098;33;20669;-70
2020/12/28 14:21:07;;;;;;;4.18;3.33;;;;;;;9.07;56.61;96859.53;8659988;33;21541;-70
2020/12/28 14:26:11;;;;;;;5.40;3.22;;;;;;;8.60;57.43;96863.19;8660991;33;20133;-70
2020/12/28 14:31:15;;;;;;;6.22;4.13;;;;;;;8.36;58.57;96866.78;8660555;33;20287;-70
2020/12/28 14:36:20;;;;;;;10.50;5.88;;;;;;;8.19;59.31;96876.69;8659852;33;20200;-71
2020/12/28 14:41:23;;;;;;;6.13;3.92;;;;;;;8.02;59.67;96875.94;8700790;33;20971;-70
2020/12/28 14:46:26;;;;;;;5.82;3.72;;;;;;;7.87;60.37;96882.94;8711903;33;20447;-70
2020/12/28 14:51:28;;;;;;;2.97;1.92;;;;;;;7.72;61.14;96877.53;8715597;33;20858;-71
2020/12/28 14:56:31;;;;;;;1.55;1.45;;;;;;;7.57;62.06;96880.06;8716043;33;20237;-70
2020/12/28 15:01:34;;;;;;;4.40;2.10;;;;;;;7.40;62.79;96881.06;8715910;33;20727;-70
2020/12/28 15:06:36;;;;;;;2.63;2.42;;;;;;;7.24;63.42;96903.13;8716409;33;20148;-70
2020/12/28 15:11:39;;;;;;;4.68;2.25;;;;;;;7.05;64.09;96904.34;8715041;33;20184;-70
2020/12/28 15:16:42;;;;;;;2.60;2.33;;;;;;;6.92;64.40;96912.78;8715235;33;20789;-70
2020/12/28 15:21:44;;;;;;;3.42;2.70;;;;;;;6.94;64.60;96912.59;8714864;33;20190;-70
2020/12/28 15:26:47;;;;;;;4.18;2.83;;;;;;;7.01;64.66;96922.38;8711818;33;20279;-70
2020/12/28 15:31:49;;;;;;;3.03;2.60;;;;;;;7.01;64.88;96918.91;8687707;33;20199;-70
2020/12/28 15:36:52;;;;;;;4.38;2.88;;;;;;;7.02;65.24;96913.44;8714824;33;20257;-70
2020/12/28 15:41:55;;;;;;;7.80;4.50;;;;;;;7.09;65.57;96908.28;8712734;33;20152;-70
2020/12/28 15:46:57;;;;;;;5.60;3.28;;;;;;;7.13;65.98;96902.50;8712811;33;20191;-70
2020/12/28 15:52:00;;;;;;;3.45;2.78;;;;;;;7.11;66.38;96904.47;8714522;33;20236;-69
2020/12/28 15:57:03;;;;;;;5.40;3.65;;;;;;;7.09;66.90;96910.94;8715356;33;20179;-70
2020/12/28 16:02:05;;;;;;;6.95;4.35;;;;;;;7.02;67.31;96905.50;8714376;33;20696;-70
2020/12/28 16:07:08;;;;;;;8.05;5.47;;;;;;;7.01;68.21;96898.50;8715184;33;20455;-69
2020/12/28 16:12:11;;;;;;;5.68;4.35;;;;;;;7.06;68.04;96896.19;8714275;33;20197;-70
2020/12/28 16:17:13;;;;;;;6.22;4.45;;;;;;;7.04;68.44;96889.38;8714390;33;20186;-70
2020/12/28 16:22:16;;;;;;;7.18;4.45;;;;;;;7.04;68.62;96897.34;8713817;33;20186;-70
2020/12/28 16:27:19;;;;;;;9.45;4.75;;;;;;;6.95;69.05;96883.25;8711448;33;20256;-70
2020/12/28 16:32:22;;;;;;;7.20;4.68;;;;;;;6.97;69.19;96881.25;8713323;33;20152;-70
2020/12/28 16:37:26;;;;;;;6.38;4.68;;;;;;;6.96;69.12;96890.19;8724369;33;20692;-70
2020/12/28 16:42:29;;;;;;;5.90;4.55;;;;;;;7.04;69.04;96876.09;8713857;33;20583;-70
2020/12/28 16:47:31;;;;;;;6.63;4.32;;;;;;;7.10;68.95;96881.59;8714156;33;20184;-70
2020/12/28 16:52:33;;;;;;;6.60;4.38;;;;;;;7.13;68.83;96877.78;8718304;33;20196;-70
2020/12/28 16:57:37;;;;;;;5.35;3.47;;;;;;;7.12;68.91;96878.75;8716630;33;20272;-71
2020/12/28 17:02:40;;;;;;;7.38;3.65;;;;;;;7.14;68.82;96884.75;8713251;33;20156;-71
2020/12/28 17:07:42;;;;;;;4.78;3.63;;;;;;;7.15;68.70;96862.50;8714887;33;20657;-71
2020/12/28 17:12:48;;;;;;;4.20;3.53;;;;;;;7.21;68.43;96863.66;8718864;33;21122;-70
2020/12/28 17:17:50;;;;;;;4.35;3.95;;;;;;;7.23;68.43;96861.66;8670645;33;20153;-71
2020/12/28 17:22:53;;;;;;;5.32;4.07;;;;;;;7.21;68.60;96853.03;8718374;33;20187;-71
2020/12/28 17:27:56;;;;;;;5.38;4.82;;;;;;;7.19;68.69;96839.13;8718684;33;20180;-70
2020/12/28 17:32:59;;;;;;;5.38;4.05;;;;;;;7.21;68.77;96837.94;8717603;33;20224;-69
2020/12/28 17:38:01;;;;;;;6.40;4.78;;;;;;;7.17;69.15;96857.03;8718123;33;20180;-69
2020/12/28 17:43:04;;;;;;;7.30;4.47;;;;;;;7.19;69.19;96852.41;8717464;33;20144;-70
2020/12/28 17:48:06;;;;;;;4.70;3.78;;;;;;;7.24;69.31;96850.03;8717932;33;20700;-70
2020/12/28 17:53:08;;;;;;;6.40;5.35;;;;;;;7.25;69.19;96851.72;8717020;33;20191;-70
2020/12/28 17:58:11;;;;;;;11.45;6.82;;;;;;;7.21;69.57;96853.03;8716758;33;20278;-70
2020/12/28 18:03:14;;;;;;;8.57;4.93;;;;;;;7.17;69.98;96867.66;8715693;33;20533;-71
2020/12/28 18:08:16;;;;;;;7.72;4.75;;;;;;;7.04;70.50;96868.16;8692296;33;20729;-70
2020/12/28 18:13:19;;;;;;;6.63;5.28;;;;;;;6.97;70.91;96860.03;8716892;33;20290;-70
2020/12/28 18:18:21;;;;;;;7.55;5.40;;;;;;;7.06;70.97;96858.22;8716737;33;20183;-70
2020/12/28 18:23:24;;;;;;;6.82;5.53;;;;;;;7.05;71.24;96856.56;8693209;33;20452;-70
2020/12/28 18:28:27;;;;;;;8.45;4.95;;;;;;;7.05;71.41;96853.91;8715876;33;21613;-70
2020/12/28 18:33:29;;;;;;;7.55;5.53;;;;;;;7.00;71.57;96843.78;8715697;33;20140;-70
2020/12/28 18:38:32;;;;;;;7.10;4.80;;;;;;;6.88;73.06;96853.91;8715374;33;20274;-70
2020/12/28 18:43:35;;;;;;;7.88;5.88;;;;;;;6.80;74.21;96855.69;8715284;33;20152;-70
2020/12/28 18:48:38;;;;;;;7.35;4.88;;;;;;;6.57;75.24;96856.34;8716769;33;20506;-70
2020/12/28 18:53:40;;;;;;;8.68;5.93;;;;;;;6.57;76.68;96856.34;8715685;33;20633;-71
2020/12/28 18:58:44;;;;;;;9.35;5.82;;;;;;;6.47;77.17;96853.00;8715972;33;20777;-70
2020/12/28 19:03:47;;;;;;;10.80;6.78;;;;;;;6.40;78.00;96849.38;8714643;33;20178;-70
2020/12/28 19:08:49;;;;;;;11.10;7.07;;;;;;;6.39;78.57;96850.34;8714872;33;20192;-71
2020/12/28 19:13:53;;;;;;;9.02;5.80;;;;;;;6.37;79.35;96857.66;8713614;33;20148;-70
2020/12/28 19:18:55;;;;;;;10.15;6.50;;;;;;;6.20;80.23;96862.06;8715791;33;20151;-70
2020/12/28 19:23:57;;;;;;;10.10;6.90;;;;;;;6.12;81.19;96862.88;8715785;33;20218;-70
2020/12/28 19:29:01;;;;;;;8.50;6.10;;;;;;;6.01;82.18;96871.13;8715744;33;20606;-71
2020/12/28 19:34:03;;;;;;;11.07;7.35;;;;;;;6.00;82.58;96866.78;8715808;33;20349;-72
2020/12/28 19:39:07;;;;;;;14.32;7.43;;;;;;;5.95;83.04;96862.00;8715242;33;20194;-74
2020/12/28 19:44:10;;;;;;;14.20;8.15;;;;;;;5.96;83.33;96857.50;8716213;33;20148;-75
2020/12/28 19:49:13;;;;;;;12.63;8.43;;;;;;;6.03;83.71;96861.16;8713489;33;20239;-75
2020/12/28 19:54:20;;;;;;;13.20;7.32;;;;;;;6.04;83.73;96860.19;8712742;33;20727;-75
2020/12/28 19:59:25;;;;;;;13.13;7.95;;;;;;;6.01;83.88;96864.00;8714787;33;20937;-75
2020/12/28 20:04:27;;;;;;;11.70;8.15;;;;;;;5.96;84.01;96870.75;8716807;33;20198;-73
2020/12/28 20:09:30;;;;;;;13.75;8.70;;;;;;;5.99;83.70;96871.25;8715582;33;21936;-74
2020/12/28 20:14:33;;;;;;;13.50;8.50;;;;;;;5.99;84.12;96871.25;8715791;33;20184;-73
2020/12/28 20:19:35;;;;;;;18.40;10.13;;;;;;;5.99;84.03;96875.75;8715598;33;20250;-73
2020/12/28 20:24:38;;;;;;;20.67;11.02;;;;;;;6.02;84.14;96875.41;8717704;33;20183;-73
2020/12/28 20:29:41;;;;;;;16.52;10.45;;;;;;;5.93;84.39;96881.66;8719927;33;20253;-74
2020/12/28 20:34:44;;;;;;;14.68;8.10;;;;;;;5.91;84.25;96884.44;8720072;33;21418;-73
2020/12/28 20:39:48;;;;;;;17.90;9.98;;;;;;;5.96;84.51;96886.66;8720044;33;20326;-73
2020/12/28 20:44:51;;;;;;;17.15;9.60;;;;;;;5.94;84.28;96884.16;8719938;33;20256;-73
2020/12/28 20:49:53;;;;;;;15.40;10.48;;;;;;;5.93;84.41;96889.59;8715279;33;22370;-74
2020/12/28 20:54:55;;;;;;;18.10;10.32;;;;;;;5.82;84.64;96885.41;8719779;33;20690;-73
2020/12/28 20:59:59;;;;;;;19.40;10.63;;;;;;;5.85;84.68;96889.56;8718870;33;20544;-74
2020/12/28 21:05:03;;;;;;;22.67;11.85;;;;;;;5.87;84.69;96892.84;8718444;33;20213;-75
2020/12/28 21:10:05;;;;;;;18.63;11.18;;;;;;;5.85;84.60;96894.84;8694038;33;20247;-74
2020/12/28 21:15:08;;;;;;;18.50;10.63;;;;;;;5.87;84.85;96890.22;8716557;33;20167;-74
2020/12/28 21:20:11;;;;;;;25.95;14.68;;;;;;;5.91;84.81;96891.56;8718179;33;20439;-74
2020/12/28 21:25:14;;;;;;;18.88;10.95;;;;;;;5.93;84.68;96887.81;8717970;33;20416;-74
2020/12/28 21:30:17;;;;;;;20.75;12.20;;;;;;;5.93;84.85;96882.50;8717174;33;20183;-74
2020/12/28 21:35:19;;;;;;;21.58;12.55;;;;;;;5.97;84.90;96889.13;8717371;33;20199;-73
2020/12/28 21:40:22;;;;;;;19.15;12.68;;;;;;;6.03;84.85;96892.13;8700542;33;20533;-72
2020/12/28 21:45:25;;;;;;;18.73;10.18;;;;;;;6.00;84.80;96893.28;8715900;33;20440;-74
2020/12/28 21:50:28;;;;;;;17.73;9.75;;;;;;;5.97;84.98;96894.44;8716906;33;20141;-74
2020/12/28 21:55:30;;;;;;;23.52;12.18;;;;;;;6.04;85.07;96892.00;8717666;33;20184;-74
2020/12/28 22:00:34;;;;;;;20.60;10.43;;;;;;;6.06;84.90;96903.28;8717803;33;20709;-73
2020/12/28 22:05:36;;;;;;;17.95;10.18;;;;;;;5.99;84.74;96903.06;8718755;33;20152;-74
2020/12/28 22:10:38;;;;;;;17.10;9.38;;;;;;;5.98;84.90;96892.63;8717699;33;20211;-74
2020/12/28 22:15:42;;;;;;;17.25;9.25;;;;;;;5.99;85.05;96904.88;8717568;33;20183;-74
2020/12/28 22:20:44;;;;;;;17.55;9.77;;;;;;;5.91;84.35;96907.47;8717498;33;20144;-74
2020/12/28 22:25:46;;;;;;;14.38;7.57;;;;;;;5.90;84.79;96921.72;8717651;33;20179;-74
2020/12/28 22:30:49;;;;;;;16.70;9.37;;;;;;;5.92;84.51;96923.19;8715760;33;20278;-74
2020/12/28 22:35:51;;;;;;;13.93;8.23;;;;;;;5.93;84.65;96916.94;8717551;33;20195;-73
2020/12/28 22:40:54;;;;;;;13.57;7.70;;;;;;;5.90;84.26;96909.28;8717271;33;20175;-73
2020/12/28 22:45:57;;;;;;;12.43;7.85;;;;;;;5.87;84.30;96922.84;8717053;33;20177;-73
2020/12/28 22:50:59;;;;;;;10.00;6.03;;;;;;;5.77;83.94;96922.13;8691917;33;21474;-74
2020/12/28 22:56:02;;;;;;;11.65;6.72;;;;;;;5.67;83.22;96918.75;8715531;33;20446;-73
2020/12/28 23:01:05;;;;;;;13.40;7.68;;;;;;;5.62;83.38;96923.66;8715718;33;20152;-72
2020/12/28 23:06:07;;;;;;;10.07;6.00;;;;;;;5.51;83.43;96924.75;8716373;33;20239;-73
2020/12/28 23:11:11;;;;;;;9.55;6.40;;;;;;;5.49;83.26;96921.47;8715928;33;20167;-73
2020/12/28 23:16:19;;;;;;;8.82;6.28;;;;;;;5.44;83.52;96923.75;8716010;33;20680;-73
2020/12/28 23:21:23;;;;;;;9.82;5.18;;;;;;;5.38;83.28;96943.72;8716587;33;20427;-73
2020/12/28 23:26:25;;;;;;;8.10;5.45;;;;;;;5.29;82.98;96952.56;8716621;33;20183;-73
2020/12/28 23:31:30;;;;;;;8.43;5.75;;;;;;;5.22;83.00;96957.66;8716135;33;20432;-73
2020/12/28 23:36:33;;;;;;;7.72;5.00;;;;;;;5.12;82.86;96965.66;8715741;33;20627;-73
2020/12/28 23:41:35;;;;;;;7.72;4.70;;;;;;;5.11;82.83;96965.81;8715622;33;20179;-73
2020/12/28 23:46:39;;;;;;;8.52;5.25;;;;;;;5.08;83.26;96966.94;8715776;33;20251;-73
2020/12/28 23:51:45;;;;;;;9.57;5.40;;;;;;;5.02;82.80;96970.22;8715982;33;20245;-73
2020/12/28 23:56:47;;;;;;;9.30;5.93;;;;;;;4.94;82.92;96962.19;8715515;33;20152;-73
